createdAt,value
2019-05-02T00:00:55.072Z,7.53
2019-05-02T00:02:48.641Z,7.72
2019-05-02T00:04:42.149Z,7.05
2019-05-02T00:06:37.992Z,7.90
2019-05-02T00:08:33.194Z,7.50
2019-05-02T00:10:26.180Z,7.83
2019-05-02T00:12:20.692Z,8.05
2019-05-02T00:14:15.960Z,7.45
2019-05-02T00:16:13.942Z,7.92
2019-05-02T00:18:06.020Z,7.25
2019-05-02T00:21:51.197Z,6.12
2019-05-02T00:23:44.239Z,6.85
2019-05-02T00:25:37.308Z,6.92
2019-05-02T00:29:25.046Z,6.78
2019-05-02T00:31:20.164Z,6.40
2019-05-02T00:33:13.489Z,6.40
2019-05-02T00:35:07.317Z,7.50
2019-05-02T00:37:00.800Z,7.37
2019-05-02T00:40:47.270Z,6.78
2019-05-02T00:42:40.661Z,5.90
2019-05-02T00:44:33.409Z,6.37
2019-05-02T00:46:30.297Z,6.12
2019-05-02T00:48:24.354Z,5.70
2019-05-02T00:50:18.327Z,5.70
2019-05-02T00:52:11.325Z,5.87
2019-05-02T00:54:04.429Z,6.72
2019-05-02T00:55:57.571Z,6.42
2019-05-02T00:57:55.559Z,5.72
2019-05-02T00:59:46.012Z,5.95
2019-05-02T01:03:37.481Z,5.03
2019-05-02T01:05:33.825Z,5.92
2019-05-02T01:07:26.883Z,5.15
2019-05-02T01:09:20.463Z,5.08
2019-05-02T01:11:13.731Z,4.90
2019-05-02T01:13:07.370Z,6.40
2019-05-02T01:15:03.204Z,5.70
2019-05-02T01:16:56.277Z,5.50
2019-05-02T01:18:49.820Z,5.47
2019-05-02T01:20:42.596Z,5.90
2019-05-02T01:22:35.869Z,5.78
2019-05-02T01:24:28.798Z,6.03
2019-05-02T01:26:24.136Z,5.50
2019-05-02T01:28:36.211Z,5.35
2019-05-02T01:30:31.017Z,6.75
2019-05-02T01:32:30.008Z,5.10
2019-05-02T01:34:24.840Z,5.10
2019-05-02T01:36:22.491Z,5.30
2019-05-02T01:38:26.251Z,4.85
2019-05-02T01:40:18.966Z,5.37
2019-05-02T01:42:12.567Z,5.20
2019-05-02T01:44:05.649Z,5.92
2019-05-02T01:47:50.628Z,5.47
2019-05-02T01:49:43.944Z,5.65
2019-05-02T01:53:34.130Z,5.12
2019-05-02T01:55:25.476Z,5.37
2019-05-02T01:57:18.220Z,5.47
2019-05-02T01:59:11.271Z,4.97
2019-05-02T02:01:05.528Z,6.03
2019-05-02T02:02:58.743Z,5.33
2019-05-02T02:04:52.115Z,4.97
2019-05-02T02:06:46.506Z,5.10
2019-05-02T02:08:40.009Z,5.22
2019-05-02T02:10:32.970Z,5.53
2019-05-02T02:12:25.764Z,4.78
2019-05-02T02:16:12.472Z,4.60
2019-05-02T02:19:59.385Z,5.60
2019-05-02T02:21:57.425Z,5.67
2019-05-02T02:24:03.149Z,4.58
2019-05-02T02:26:00.817Z,5.17
2019-05-02T02:27:54.910Z,5.22
2019-05-02T02:29:48.467Z,5.70
2019-05-02T02:31:46.540Z,6.78
2019-05-02T02:33:40.902Z,4.80
2019-05-02T02:35:31.771Z,4.97
2019-05-02T02:39:17.286Z,4.67
2019-05-02T02:41:13.074Z,4.75
2019-05-02T02:43:30.218Z,4.92
2019-05-02T02:45:18.920Z,4.53
2019-05-02T02:47:18.328Z,4.62
2019-05-02T02:49:06.442Z,4.72
2019-05-02T02:52:51.709Z,4.65
2019-05-02T02:56:40.399Z,4.70
2019-05-02T02:58:44.002Z,5.00
2019-05-02T03:00:27.674Z,5.00
2019-05-02T03:02:20.667Z,4.95
2019-05-02T03:04:13.340Z,5.25
2019-05-02T03:08:05.433Z,5.00
2019-05-02T03:09:59.759Z,4.35
2019-05-02T03:12:08.678Z,5.15
2019-05-02T03:14:07.473Z,5.03
2019-05-02T03:16:16.442Z,4.70
2019-05-02T03:18:09.861Z,5.90
2019-05-02T03:20:06.151Z,5.50
2019-05-02T03:22:04.151Z,5.58
2019-05-02T03:24:03.042Z,4.85
2019-05-02T03:25:51.231Z,4.80
2019-05-02T03:27:43.807Z,5.15
2019-05-02T03:31:31.705Z,4.65
2019-05-02T03:33:25.304Z,5.55
2019-05-02T03:37:13.991Z,5.37
2019-05-02T03:39:14.980Z,4.87
2019-05-02T03:41:03.179Z,5.25
2019-05-02T03:42:56.296Z,5.20
2019-05-02T03:44:55.779Z,4.97
2019-05-02T03:46:44.396Z,4.80
2019-05-02T03:48:37.483Z,5.05
2019-05-02T03:50:32.391Z,4.62
2019-05-02T03:52:24.768Z,5.10
2019-05-02T03:54:20.063Z,4.97
2019-05-02T03:56:14.092Z,5.50
2019-05-02T03:58:14.206Z,4.85
2019-05-02T04:00:01.844Z,4.80
2019-05-02T04:01:55.082Z,5.53
2019-05-02T04:03:48.611Z,4.80
2019-05-02T04:05:42.298Z,5.03
2019-05-02T04:07:40.572Z,5.55
2019-05-02T04:09:39.119Z,4.97
2019-05-02T04:11:37.835Z,5.62
2019-05-02T04:13:24.164Z,4.92
2019-05-02T04:15:17.481Z,5.30
2019-05-02T04:17:11.721Z,5.28
2019-05-02T04:19:04.988Z,4.33
2019-05-02T04:20:59.136Z,5.28
2019-05-02T04:22:53.712Z,5.37
2019-05-02T04:24:54.668Z,4.80
2019-05-02T04:26:52.690Z,4.97
2019-05-02T04:28:38.322Z,5.05
2019-05-02T04:30:32.026Z,4.70
2019-05-02T04:32:25.204Z,5.00
2019-05-02T04:36:15.173Z,4.50
2019-05-02T04:38:18.673Z,5.25
2019-05-02T04:40:03.968Z,5.00
2019-05-02T04:41:58.610Z,4.80
2019-05-02T04:43:57.526Z,5.60
2019-05-02T04:45:55.722Z,5.08
2019-05-02T04:47:42.595Z,5.70
2019-05-02T04:49:39.153Z,4.78
2019-05-02T04:51:31.964Z,4.58
2019-05-02T04:53:36.943Z,5.58
2019-05-02T04:55:28.719Z,5.35
2019-05-02T04:57:18.431Z,4.33
2019-05-02T04:59:17.762Z,5.85
2019-05-02T05:01:06.453Z,4.97
2019-05-02T05:02:59.695Z,4.92
2019-05-02T05:04:52.925Z,4.55
2019-05-02T05:06:54.901Z,4.53
2019-05-02T05:08:41.735Z,5.42
2019-05-02T05:10:41.585Z,4.90
2019-05-02T05:12:32.541Z,4.37
2019-05-02T05:14:32.865Z,5.08
2019-05-02T05:16:22.500Z,4.75
2019-05-02T05:18:17.694Z,5.00
2019-05-02T05:20:15.483Z,4.97
2019-05-02T05:22:11.708Z,4.97
2019-05-02T05:24:03.609Z,5.25
2019-05-02T05:26:03.419Z,4.70
2019-05-02T05:27:58.753Z,4.50
2019-05-02T05:29:53.795Z,5.00
2019-05-02T05:31:44.121Z,5.08
2019-05-02T05:33:37.791Z,4.95
2019-05-02T05:35:31.079Z,4.78
2019-05-02T05:37:23.873Z,5.25
2019-05-02T05:39:17.587Z,5.15
2019-05-02T05:41:13.177Z,4.53
2019-05-02T05:43:13.728Z,5.45
2019-05-02T05:45:03.759Z,4.97
2019-05-02T05:46:55.311Z,5.25
2019-05-02T05:48:48.275Z,5.28
2019-05-02T05:50:41.631Z,4.30
2019-05-02T05:52:38.845Z,5.10
2019-05-02T05:54:33.017Z,4.75
2019-05-02T05:56:23.913Z,5.17
2019-05-02T05:58:18.759Z,5.05
2019-05-02T06:00:18.703Z,4.80
2019-05-02T06:02:13.119Z,5.08
2019-05-02T06:04:01.847Z,5.20
2019-05-02T06:08:18.520Z,4.92
2019-05-02T06:10:10.054Z,5.03
2019-05-02T06:12:04.545Z,6.42
2019-05-02T06:13:57.667Z,5.20
2019-05-02T06:17:44.379Z,5.25
2019-05-02T06:19:37.515Z,5.03
2019-05-02T06:23:22.912Z,5.22
2019-05-02T06:25:24.616Z,5.17
2019-05-02T06:27:12.432Z,5.00
2019-05-02T06:29:05.345Z,5.00
2019-05-02T06:31:02.168Z,4.90
2019-05-02T06:32:54.978Z,5.12
2019-05-02T06:34:48.283Z,4.60
2019-05-02T06:36:41.546Z,4.62
2019-05-02T06:38:34.688Z,4.78
2019-05-02T06:42:20.046Z,4.05
2019-05-02T06:46:15.989Z,4.17
2019-05-02T06:48:01.256Z,4.83
2019-05-02T06:49:56.182Z,4.83
2019-05-02T06:51:50.987Z,4.50
2019-05-02T06:53:47.121Z,4.12
2019-05-02T06:55:38.855Z,4.00
2019-05-02T06:57:32.364Z,3.92
2019-05-02T06:59:25.611Z,4.10
2019-05-02T07:01:21.391Z,4.33
2019-05-02T07:03:13.252Z,4.15
2019-05-02T07:05:07.851Z,4.53
2019-05-02T07:07:01.435Z,4.80
2019-05-02T07:08:55.166Z,4.37
2019-05-02T07:10:48.183Z,3.85
2019-05-02T07:12:41.253Z,4.70
2019-05-02T07:14:34.157Z,4.72
2019-05-02T07:16:37.619Z,5.22
2019-05-02T07:18:31.299Z,6.25
2019-05-02T07:20:24.697Z,5.37
2019-05-02T07:22:17.547Z,5.58
2019-05-02T07:26:02.840Z,5.15
2019-05-02T07:27:55.699Z,5.05
2019-05-02T07:29:52.056Z,5.28
2019-05-02T07:31:47.642Z,4.70
2019-05-02T07:33:38.817Z,5.62
2019-05-02T07:35:32.239Z,5.10
2019-05-02T07:39:17.995Z,5.62
2019-05-02T07:41:11.008Z,5.80
2019-05-02T07:43:04.387Z,5.80
2019-05-02T07:44:57.844Z,6.03
2019-05-02T07:46:52.352Z,6.33
2019-05-02T07:48:48.871Z,5.58
2019-05-02T07:50:46.434Z,5.72
2019-05-02T07:52:36.372Z,6.45
2019-05-02T07:56:21.772Z,5.87
2019-05-02T07:58:14.705Z,5.58
2019-05-02T08:00:14.703Z,6.70
2019-05-02T08:02:07.963Z,6.30
2019-05-02T08:04:04.491Z,5.85
2019-05-02T08:05:58.608Z,9.03
2019-05-02T08:07:53.481Z,6.28
2019-05-02T08:09:45.478Z,7.47
2019-05-02T08:11:40.038Z,6.90
2019-05-02T08:13:33.345Z,6.75
2019-05-02T08:15:27.552Z,7.17
2019-05-02T08:17:20.619Z,6.17
2019-05-02T08:19:13.532Z,7.03
2019-05-02T08:21:06.498Z,5.97
2019-05-02T08:24:51.891Z,6.33
2019-05-02T08:27:01.415Z,6.87
2019-05-02T08:29:01.979Z,6.22
2019-05-02T08:30:56.423Z,6.37
2019-05-02T08:32:49.573Z,6.67
2019-05-02T08:36:36.681Z,7.17
2019-05-02T08:38:29.574Z,7.47
2019-05-02T08:42:15.660Z,6.72
2019-05-02T08:44:09.147Z,6.75
2019-05-02T08:47:54.644Z,7.05
2019-05-02T08:49:49.260Z,6.80
2019-05-02T08:51:42.888Z,7.12
2019-05-02T08:53:35.788Z,6.17
2019-05-02T08:55:30.040Z,6.25
2019-05-02T08:57:23.868Z,6.75
2019-05-02T08:59:19.685Z,6.65
2019-05-02T09:01:13.662Z,6.85
2019-05-02T09:03:07.539Z,7.40
2019-05-02T09:05:04.679Z,6.55
2019-05-02T09:06:58.733Z,6.33
2019-05-02T09:08:51.328Z,7.15
2019-05-02T09:10:46.326Z,7.45
2019-05-02T09:12:42.052Z,7.05
2019-05-02T09:14:34.120Z,5.85
2019-05-02T09:18:22.260Z,7.60
2019-05-02T09:20:20.762Z,6.92
2019-05-02T09:22:13.223Z,6.10
2019-05-02T09:24:08.340Z,6.45
2019-05-02T09:26:02.619Z,6.45
2019-05-02T09:27:55.744Z,6.08
2019-05-02T09:29:49.033Z,6.28
2019-05-02T09:31:46.016Z,6.62
2019-05-02T09:33:45.166Z,6.65
2019-05-02T09:35:32.821Z,6.92
2019-05-02T09:37:26.260Z,6.95
2019-05-02T09:39:19.238Z,6.87
2019-05-02T09:41:17.013Z,7.60
2019-05-02T09:43:07.226Z,6.72
2019-05-02T09:45:00.298Z,6.90
2019-05-02T09:50:39.292Z,7.55
2019-05-02T09:52:39.182Z,6.03
2019-05-02T09:54:27.622Z,7.10
2019-05-02T09:56:21.950Z,6.47
2019-05-02T09:58:21.257Z,7.53
2019-05-02T10:00:16.832Z,6.20
2019-05-02T10:02:09.790Z,8.30
2019-05-02T10:04:03.215Z,6.83
2019-05-02T10:05:56.213Z,6.97
2019-05-02T10:07:49.849Z,6.30
2019-05-02T10:11:35.872Z,6.50
2019-05-02T10:13:29.439Z,7.17
2019-05-02T10:15:22.837Z,6.22
2019-05-02T10:17:18.504Z,6.97
2019-05-02T10:19:13.561Z,6.33
2019-05-02T10:21:07.819Z,6.45
2019-05-02T10:23:02.237Z,5.78
2019-05-02T10:24:56.000Z,5.47
2019-05-02T10:26:49.327Z,6.28
2019-05-02T10:28:49.319Z,6.37
2019-05-02T10:30:38.108Z,6.60
2019-05-02T10:32:32.463Z,6.90
2019-05-02T10:34:26.557Z,6.55
2019-05-02T10:36:21.116Z,7.37
2019-05-02T10:38:19.112Z,6.60
2019-05-02T10:40:15.494Z,5.95
2019-05-02T10:42:04.773Z,5.78
2019-05-02T10:43:59.591Z,6.50
2019-05-02T10:46:01.830Z,6.33
2019-05-02T10:47:56.247Z,6.30
2019-05-02T10:51:51.842Z,6.53
2019-05-02T10:53:47.011Z,5.87
2019-05-02T10:55:39.716Z,5.47
2019-05-02T10:57:32.992Z,5.53
2019-05-02T10:59:27.317Z,5.83
2019-05-02T11:03:31.954Z,6.95
2019-05-02T11:05:26.797Z,4.97
2019-05-02T11:07:22.792Z,5.37
2019-05-02T11:09:16.841Z,5.35
2019-05-02T11:11:12.551Z,5.60
2019-05-02T11:13:13.666Z,5.50
2019-05-02T11:15:26.825Z,5.35
2019-05-02T11:17:24.816Z,5.30
2019-05-02T11:19:22.101Z,5.67
2019-05-02T11:21:15.476Z,4.45
2019-05-02T11:25:01.675Z,5.70
2019-05-02T11:26:55.630Z,5.53
2019-05-02T11:28:48.963Z,6.00
2019-05-02T11:30:44.074Z,5.67
2019-05-02T11:32:37.356Z,4.85
2019-05-02T11:34:32.658Z,6.12
2019-05-02T11:36:27.474Z,5.65
2019-05-02T11:38:46.329Z,5.95
2019-05-02T11:40:17.790Z,5.97
2019-05-02T11:42:12.497Z,5.95
2019-05-02T11:44:06.351Z,5.60
2019-05-02T11:46:02.566Z,5.50
2019-05-02T11:47:56.121Z,5.25
2019-05-02T11:49:52.069Z,4.70
2019-05-02T11:51:46.983Z,4.45
2019-05-02T11:53:42.371Z,4.50
2019-05-02T11:55:35.606Z,5.55
2019-05-02T11:57:32.612Z,5.53
2019-05-02T11:59:27.986Z,4.33
2019-05-02T12:01:35.042Z,4.92
2019-05-02T12:03:19.337Z,5.03
2019-05-02T12:05:17.478Z,4.40
2019-05-02T12:07:12.795Z,4.58
2019-05-02T12:09:09.408Z,5.37
2019-05-02T12:11:03.879Z,4.60
2019-05-02T12:12:57.383Z,4.87
2019-05-02T12:14:52.728Z,4.65
2019-05-02T12:16:45.811Z,4.67
2019-05-02T12:18:39.108Z,4.12
2019-05-02T12:20:33.896Z,4.20
2019-05-02T12:22:27.148Z,3.95
2019-05-02T12:24:22.051Z,4.15
2019-05-02T12:26:14.903Z,3.92
2019-05-02T12:28:08.283Z,4.12
2019-05-02T12:30:03.313Z,3.80
2019-05-02T12:31:56.588Z,4.12
2019-05-02T12:33:51.631Z,4.00
2019-05-02T12:35:45.257Z,3.70
2019-05-02T12:37:38.247Z,4.37
2019-05-02T12:41:25.417Z,3.77
2019-05-02T12:43:18.872Z,4.30
2019-05-02T12:45:12.468Z,4.12
2019-05-02T12:47:07.668Z,4.62
2019-05-02T12:49:02.600Z,4.78
2019-05-02T12:50:56.788Z,3.80
2019-05-02T12:52:52.056Z,3.50
2019-05-02T12:54:45.315Z,3.83
2019-05-02T12:56:38.079Z,3.52
2019-05-02T12:58:32.515Z,2.90
2019-05-02T13:00:25.932Z,3.10
2019-05-02T13:02:26.384Z,3.35
2019-05-02T13:04:19.310Z,3.58
2019-05-02T13:06:12.479Z,3.05
2019-05-02T13:09:57.676Z,3.70
2019-05-02T13:11:55.928Z,3.87
2019-05-02T13:13:48.918Z,3.60
2019-05-02T13:15:42.415Z,3.62
2019-05-02T13:17:43.899Z,3.90
2019-05-02T13:19:40.609Z,3.58
2019-05-02T13:21:42.238Z,3.60
2019-05-02T13:23:39.306Z,3.35
2019-05-02T13:25:36.891Z,4.35
2019-05-02T13:27:32.245Z,2.98
2019-05-02T13:29:23.093Z,3.45
2019-05-02T13:31:22.298Z,3.08
2019-05-02T13:33:17.169Z,3.08
2019-05-02T13:35:18.419Z,2.87
2019-05-02T13:37:13.105Z,2.35
2019-05-02T13:39:12.279Z,2.80
2019-05-02T13:41:05.307Z,2.25
2019-05-02T13:42:58.460Z,2.37
2019-05-02T13:45:09.397Z,2.70
2019-05-02T13:47:02.840Z,2.87
2019-05-02T13:48:56.211Z,3.12
2019-05-02T13:52:45.169Z,3.20
2019-05-02T13:54:36.952Z,3.08
2019-05-02T13:56:43.335Z,2.95
2019-05-02T13:58:38.964Z,3.02
2019-05-02T14:00:33.847Z,2.90
2019-05-02T14:02:43.258Z,3.08
2019-05-02T14:04:36.410Z,2.80
2019-05-02T14:06:35.709Z,2.92
2019-05-02T14:08:35.483Z,3.02
2019-05-02T14:10:34.102Z,2.72
2019-05-02T14:12:26.280Z,3.05
2019-05-02T14:14:19.476Z,3.12
2019-05-02T14:16:12.623Z,2.75
2019-05-02T14:18:05.991Z,2.65
2019-05-02T14:21:53.069Z,2.65
2019-05-02T14:23:46.408Z,2.42
2019-05-02T14:25:39.398Z,2.15
2019-05-02T14:27:32.459Z,2.08
2019-05-02T14:29:25.908Z,2.27
2019-05-02T14:33:23.242Z,2.10
2019-05-02T14:35:28.006Z,1.87
2019-05-02T14:37:18.616Z,2.83
2019-05-02T14:41:09.546Z,2.37
2019-05-02T14:43:05.818Z,2.47
2019-05-02T14:45:08.884Z,2.40
2019-05-02T14:46:53.286Z,2.20
2019-05-02T14:48:46.852Z,2.47
2019-05-02T14:50:41.818Z,2.25
2019-05-02T14:52:37.157Z,3.17
2019-05-02T14:54:29.829Z,2.45
2019-05-02T14:56:47.565Z,2.70
2019-05-02T14:58:37.919Z,3.33
2019-05-02T15:00:39.443Z,2.47
2019-05-02T15:02:47.513Z,3.17
2019-05-02T15:04:38.143Z,2.95
2019-05-02T15:06:33.326Z,3.10
2019-05-02T15:08:25.561Z,3.42
2019-05-02T15:10:19.093Z,2.85
2019-05-02T15:12:15.983Z,2.83
2019-05-02T15:14:11.373Z,2.98
2019-05-02T15:16:02.545Z,2.30
2019-05-02T15:17:56.168Z,3.08
2019-05-02T15:19:49.028Z,2.85
2019-05-02T15:21:42.305Z,3.12
2019-05-02T15:23:36.009Z,3.00
2019-05-02T15:25:29.351Z,2.98
2019-05-02T15:27:22.330Z,2.75
2019-05-02T15:29:19.713Z,3.25
2019-05-02T15:31:18.933Z,3.25
2019-05-02T15:33:17.046Z,2.92
2019-05-02T15:35:12.936Z,3.20
2019-05-02T15:37:06.416Z,3.77
2019-05-02T15:40:59.404Z,3.42
2019-05-02T15:42:52.065Z,3.60
2019-05-02T15:44:57.186Z,3.45
2019-05-02T15:46:48.855Z,3.47
2019-05-02T15:48:42.367Z,3.15
2019-05-02T15:50:35.156Z,3.20
2019-05-02T15:52:30.052Z,3.67
2019-05-02T15:54:23.188Z,3.75
2019-05-02T15:56:20.237Z,3.05
2019-05-02T15:58:26.047Z,3.10
2019-05-02T16:00:23.216Z,3.27
2019-05-02T16:02:17.631Z,3.35
2019-05-02T16:04:12.708Z,3.72
2019-05-02T16:06:06.331Z,3.22
2019-05-02T16:08:05.495Z,3.83
2019-05-02T16:09:57.269Z,3.33
2019-05-02T16:11:55.247Z,4.33
2019-05-02T16:13:47.012Z,2.98
2019-05-02T16:15:39.658Z,3.67
2019-05-02T16:17:34.120Z,3.70
2019-05-02T16:19:29.265Z,4.42
2019-05-02T16:21:32.546Z,3.75
2019-05-02T16:23:32.697Z,3.62
2019-05-02T16:25:24.320Z,4.22
2019-05-02T16:27:16.491Z,3.65
2019-05-02T16:29:12.966Z,3.70
2019-05-02T16:31:06.785Z,3.85
2019-05-02T16:33:02.718Z,3.80
2019-05-02T16:34:57.466Z,4.03
2019-05-02T16:36:52.395Z,4.28
2019-05-02T16:38:45.259Z,4.28
2019-05-02T16:42:32.797Z,3.98
2019-05-02T16:44:26.155Z,4.33
2019-05-02T16:46:21.700Z,5.25
2019-05-02T16:48:15.080Z,3.80
2019-05-02T16:50:09.548Z,4.33
2019-05-02T16:52:07.333Z,4.28
2019-05-02T16:54:01.552Z,4.80
2019-05-02T16:55:53.643Z,4.20
2019-05-02T16:57:48.137Z,4.08
2019-05-02T16:59:42.619Z,5.20
2019-05-02T17:01:35.953Z,4.70
2019-05-02T17:05:22.105Z,4.62
2019-05-02T17:07:17.650Z,5.08
2019-05-02T17:09:28.770Z,5.30
2019-05-02T17:11:27.811Z,6.28
2019-05-02T17:13:18.966Z,5.87
2019-05-02T17:17:26.531Z,5.10
2019-05-02T17:19:18.931Z,5.60
2019-05-02T17:21:12.633Z,5.00
2019-05-02T17:23:07.614Z,4.95
2019-05-02T17:25:02.365Z,5.25
2019-05-02T17:26:55.658Z,5.15
2019-05-02T17:28:48.704Z,5.17
2019-05-02T17:30:43.046Z,4.97
2019-05-02T17:32:37.708Z,6.37
2019-05-02T17:34:34.839Z,6.28
2019-05-02T17:36:28.579Z,5.78
2019-05-02T17:38:25.045Z,6.25
2019-05-02T17:40:16.805Z,6.30
2019-05-02T17:42:12.456Z,5.47
2019-05-02T17:44:05.891Z,6.53
2019-05-02T17:45:58.960Z,5.35
2019-05-02T17:47:52.171Z,5.42
2019-05-02T17:49:45.330Z,5.83
2019-05-02T17:52:05.247Z,5.55
2019-05-02T17:53:52.374Z,5.80
2019-05-02T17:55:46.051Z,5.35
2019-05-02T17:57:39.132Z,5.25
2019-05-02T17:59:34.616Z,6.25
2019-05-02T18:01:31.989Z,5.78
2019-05-02T18:03:30.734Z,5.85
2019-05-02T18:05:18.355Z,5.65
2019-05-02T18:07:11.761Z,6.15
2019-05-02T18:09:06.913Z,6.35
2019-05-02T18:11:02.786Z,5.95
2019-05-02T18:12:59.750Z,6.70
2019-05-02T18:14:51.390Z,6.90
2019-05-02T18:16:47.212Z,6.78
2019-05-02T18:18:43.677Z,6.62
2019-05-02T18:20:37.199Z,6.75
2019-05-02T18:22:34.360Z,6.35
2019-05-02T18:24:24.736Z,7.15
2019-05-02T18:26:17.866Z,6.45
2019-05-02T18:28:14.066Z,5.83
2019-05-02T18:30:08.307Z,5.78
2019-05-02T18:32:02.365Z,6.17
2019-05-02T18:33:55.606Z,5.37
2019-05-02T18:37:45.038Z,5.08
2019-05-02T18:39:44.791Z,5.08
2019-05-02T18:41:31.863Z,5.50
2019-05-02T18:43:26.528Z,5.40
2019-05-02T18:47:20.305Z,4.95
2019-05-02T18:49:17.124Z,5.47
2019-05-02T18:51:07.737Z,5.35
2019-05-02T18:53:01.225Z,5.53
2019-05-02T18:54:56.531Z,5.95
2019-05-02T18:56:53.095Z,5.08
2019-05-02T18:58:45.457Z,5.80
2019-05-02T19:00:39.721Z,5.53
2019-05-02T19:02:35.602Z,5.55
2019-05-02T19:04:35.286Z,6.20
2019-05-02T19:06:27.860Z,6.25
2019-05-02T19:08:29.156Z,5.08
2019-05-02T19:10:15.103Z,5.00
2019-05-02T19:12:19.468Z,4.78
2019-05-02T19:14:07.286Z,4.85
2019-05-02T19:16:01.996Z,5.00
2019-05-02T19:17:56.240Z,5.00
2019-05-02T19:19:52.599Z,6.08
2019-05-02T19:21:47.148Z,5.97
2019-05-02T19:23:42.452Z,4.78
2019-05-02T19:25:37.245Z,5.20
2019-05-02T19:27:38.436Z,5.47
2019-05-02T19:29:32.540Z,5.45
2019-05-02T19:31:28.301Z,6.40
2019-05-02T19:33:23.506Z,6.45
2019-05-02T19:35:17.643Z,6.15
2019-05-02T19:37:12.238Z,6.20
2019-05-02T19:39:09.959Z,6.25
2019-05-02T19:41:08.703Z,6.20
2019-05-02T19:43:06.079Z,6.75
2019-05-02T19:44:55.560Z,6.40
2019-05-02T19:46:51.820Z,7.08
2019-05-02T19:48:45.255Z,6.70
2019-05-02T19:50:43.635Z,7.03
2019-05-02T19:52:39.453Z,6.45
2019-05-02T19:54:31.760Z,6.97
2019-05-02T19:56:26.434Z,7.00
2019-05-02T19:58:21.223Z,7.22
2019-05-02T20:00:15.957Z,7.05
2019-05-02T20:02:11.796Z,7.00
2019-05-02T20:04:09.114Z,7.55
2019-05-02T20:06:05.959Z,7.28
2019-05-02T20:07:57.118Z,7.00
2019-05-02T20:09:52.438Z,7.78
2019-05-02T20:11:46.563Z,7.67
2019-05-02T20:13:40.643Z,7.62
2019-05-02T20:15:36.483Z,7.42
2019-05-02T20:17:32.456Z,7.72
2019-05-02T20:19:27.152Z,7.00
2019-05-02T20:21:27.465Z,6.87
2019-05-02T20:23:18.561Z,7.08
2019-05-02T20:25:13.204Z,7.22
2019-05-02T20:27:06.732Z,8.50
2019-05-02T20:29:01.931Z,8.13
2019-05-02T20:30:55.402Z,7.92
2019-05-02T20:32:48.919Z,7.42
2019-05-02T20:36:35.528Z,7.50
2019-05-02T20:38:29.509Z,6.67
2019-05-02T20:40:28.563Z,7.97
2019-05-02T20:42:22.875Z,7.47
2019-05-02T20:44:15.908Z,7.97
2019-05-02T20:46:08.963Z,8.08
2019-05-02T20:48:02.287Z,8.05
2019-05-02T20:49:55.797Z,8.50
2019-05-02T20:51:51.776Z,8.48
2019-05-02T20:53:45.036Z,9.75
2019-05-02T20:57:31.829Z,9.48
2019-05-02T20:59:25.174Z,9.65
2019-05-02T21:01:18.186Z,11.28
2019-05-02T21:03:11.931Z,12.18
2019-05-02T21:05:08.279Z,12.33
2019-05-02T21:07:17.970Z,11.33
2019-05-02T21:09:21.910Z,14.40
2019-05-02T21:11:15.642Z,13.38
2019-05-02T21:13:09.090Z,14.07
2019-05-02T21:15:02.524Z,16.17
2019-05-02T21:16:56.207Z,15.28
2019-05-02T21:18:49.712Z,15.10
2019-05-02T21:20:42.927Z,18.02
2019-05-02T21:22:36.968Z,19.42
2019-05-02T21:24:29.755Z,18.12
2019-05-02T21:28:15.200Z,15.40
2019-05-02T21:30:12.309Z,13.70
2019-05-02T21:32:06.264Z,12.93
2019-05-02T21:33:59.410Z,11.85
2019-05-02T21:35:52.412Z,13.22
2019-05-02T21:39:38.096Z,9.30
2019-05-02T21:41:32.827Z,10.30
2019-05-02T21:43:25.627Z,9.73
2019-05-02T21:45:18.348Z,10.75
2019-05-02T21:47:11.812Z,10.98
2019-05-02T21:51:02.583Z,10.93
2019-05-02T21:53:03.394Z,9.55
2019-05-02T21:55:08.840Z,9.95
2019-05-02T21:57:03.383Z,11.48
2019-05-02T21:59:11.925Z,10.13
2019-05-02T22:01:12.986Z,8.93
2019-05-02T22:03:07.048Z,9.95
2019-05-02T22:05:02.224Z,10.70
2019-05-02T22:06:56.295Z,9.40
2019-05-02T22:08:49.588Z,8.93
2019-05-02T22:10:42.717Z,10.05
2019-05-02T22:14:28.136Z,6.97
2019-05-02T22:18:15.164Z,7.75
2019-05-02T22:22:01.698Z,8.68
2019-05-02T22:24:07.557Z,7.45
2019-05-02T22:25:49.724Z,7.92
2019-05-02T22:27:42.914Z,6.47
2019-05-02T22:29:35.695Z,9.13
2019-05-02T22:33:22.195Z,7.37
2019-05-02T22:35:15.581Z,7.28
2019-05-02T22:37:10.178Z,7.70
2019-05-02T22:39:22.949Z,6.70
2019-05-02T22:41:16.064Z,8.15
2019-05-02T22:43:09.290Z,6.05
2019-05-02T22:48:48.765Z,7.58
2019-05-02T22:52:35.488Z,6.83
2019-05-02T22:54:33.299Z,6.35
2019-05-02T22:56:23.603Z,5.92
2019-05-02T22:58:16.855Z,7.78
2019-05-02T23:00:10.005Z,6.67
2019-05-02T23:02:04.064Z,9.65
2019-05-02T23:03:57.231Z,5.33
2019-05-02T23:07:43.134Z,5.78
2019-05-02T23:09:36.272Z,5.15
2019-05-02T23:11:29.556Z,5.40
2019-05-02T23:13:24.676Z,6.28
2019-05-02T23:15:17.548Z,5.22
2019-05-02T23:19:02.876Z,4.47
2019-05-02T23:20:56.048Z,5.30
2019-05-02T23:22:49.335Z,3.80
2019-05-02T23:25:02.928Z,4.20
2019-05-02T23:27:04.055Z,4.00
2019-05-02T23:28:58.892Z,3.50
2019-05-02T23:30:52.194Z,4.90
2019-05-02T23:32:45.217Z,5.55
2019-05-02T23:34:37.940Z,4.30
2019-05-02T23:36:32.697Z,4.65
2019-05-02T23:38:26.234Z,4.87
2019-05-02T23:40:19.159Z,3.83
2019-05-02T23:44:06.280Z,4.15
2019-05-02T23:45:59.219Z,3.87
2019-05-02T23:47:52.763Z,3.75
2019-05-02T23:49:46.452Z,4.03
2019-05-02T23:51:39.994Z,3.77
2019-05-02T23:53:34.148Z,3.33
2019-05-02T23:55:27.329Z,3.92
2019-05-02T23:57:20.016Z,3.17
2019-05-02T23:59:13.744Z,3.22
